sensor_id;sensor_type;location;lat;lon;timestamp;pressure;altitude;pressure_sealevel;temperature;humidity
15604;BME280;7902;49.042;9.092;2023-06-19T00:00:21;98570.28;;;27.80;36.07
15604;BME280;7902;49.042;9.092;2023-06-19T00:02:46;98570.28;;;27.80;36.32
15604;BME280;7902;49.042;9.092;2023-06-19T00:05:13;98569.81;;;27.83;36.24
15604;BME280;7902;49.042;9.092;2023-06-19T00:07:39;98566.63;;;27.74;35.99
15604;BME280;7902;49.042;9.092;2023-06-19T00:10:06;98571.94;;;27.81;36.21
15604;BME280;7902;49.042;9.092;2023-06-19T00:12:32;98571.59;;;27.77;36.04
15604;BME280;7902;49.042;9.092;2023-06-19T00:14:59;98572.88;;;27.75;36.16
15604;BME280;7902;49.042;9.092;2023-06-19T00:17:25;98570.75;;;27.77;36.19
15604;BME280;7902;49.042;9.092;2023-06-19T00:19:53;98578.75;;;27.72;36.61
15604;BME280;7902;49.042;9.092;2023-06-19T00:22:19;98576.75;;;27.67;36.99
15604;BME280;7902;49.042;9.092;2023-06-19T00:24:45;98569.34;;;27.63;36.73
15604;BME280;7902;49.042;9.092;2023-06-19T00:27:11;98576.84;;;27.61;36.53
15604;BME280;7902;49.042;9.092;2023-06-19T00:29:37;98580.00;;;27.58;36.59
15604;BME280;7902;49.042;9.092;2023-06-19T00:32:03;98585.41;;;27.58;36.53
15604;BME280;7902;49.042;9.092;2023-06-19T00:34:30;98582.22;;;27.61;36.76
15604;BME280;7902;49.042;9.092;2023-06-19T00:36:57;98577.53;;;27.56;36.77
15604;BME280;7902;49.042;9.092;2023-06-19T00:39:24;98580.38;;;27.49;37.29
15604;BME280;7902;49.042;9.092;2023-06-19T00:41:54;98582.91;;;27.44;37.38
15604;BME280;7902;49.042;9.092;2023-06-19T00:44:21;98583.22;;;27.36;37.30
15604;BME280;7902;49.042;9.092;2023-06-19T00:46:51;98582.72;;;27.28;38.08
15604;BME280;7902;49.042;9.092;2023-06-19T00:49:17;98586.34;;;27.22;38.13
15604;BME280;7902;49.042;9.092;2023-06-19T00:51:43;98588.94;;;27.28;37.85
15604;BME280;7902;49.042;9.092;2023-06-19T00:54:09;98587.97;;;27.11;38.86
15604;BME280;7902;49.042;9.092;2023-06-19T00:56:37;98593.81;;;27.08;38.88
15604;BME280;7902;49.042;9.092;2023-06-19T00:59:06;98617.47;;;27.06;38.99
15604;BME280;7902;49.042;9.092;2023-06-19T01:01:33;98639.72;;;27.01;38.58
15604;BME280;7902;49.042;9.092;2023-06-19T01:03:59;98634.34;;;26.83;39.08
15604;BME280;7902;49.042;9.092;2023-06-19T01:06:29;98623.59;;;27.13;38.10
15604;BME280;7902;49.042;9.092;2023-06-19T01:09:11;98631.84;;;27.00;38.27
15604;BME280;7902;49.042;9.092;2023-06-19T01:11:52;98634.97;;;27.15;38.09
15604;BME280;7902;49.042;9.092;2023-06-19T01:14:25;98638.00;;;27.07;38.66
15604;BME280;7902;49.042;9.092;2023-06-19T01:16:52;98633.66;;;27.06;39.35
15604;BME280;7902;49.042;9.092;2023-06-19T01:19:19;98637.13;;;27.25;39.58
15604;BME280;7902;49.042;9.092;2023-06-19T01:21:47;98629.53;;;27.33;39.43
15604;BME280;7902;49.042;9.092;2023-06-19T01:24:13;98635.81;;;27.27;39.63
15604;BME280;7902;49.042;9.092;2023-06-19T01:26:40;98641.69;;;27.24;39.93
15604;BME280;7902;49.042;9.092;2023-06-19T01:29:06;98643.06;;;27.15;40.19
15604;BME280;7902;49.042;9.092;2023-06-19T01:31:41;98640.69;;;27.07;40.02
15604;BME280;7902;49.042;9.092;2023-06-19T01:34:08;98641.59;;;27.01;40.38
15604;BME280;7902;49.042;9.092;2023-06-19T01:36:37;98641.38;;;27.02;40.48
15604;BME280;7902;49.042;9.092;2023-06-19T01:39:03;98657.22;;;27.11;40.08
15604;BME280;7902;49.042;9.092;2023-06-19T01:41:30;98657.44;;;27.09;40.72
15604;BME280;7902;49.042;9.092;2023-06-19T01:43:57;98657.47;;;26.91;40.80
15604;BME280;7902;49.042;9.092;2023-06-19T01:46:24;98662.41;;;26.94;41.56
15604;BME280;7902;49.042;9.092;2023-06-19T01:48:50;98659.41;;;26.84;41.65
15604;BME280;7902;49.042;9.092;2023-06-19T01:51:16;98657.22;;;27.11;41.43
15604;BME280;7902;49.042;9.092;2023-06-19T01:53:42;98658.66;;;26.95;41.39
15604;BME280;7902;49.042;9.092;2023-06-19T01:56:08;98650.03;;;27.04;41.61
15604;BME280;7902;49.042;9.092;2023-06-19T01:58:34;98648.56;;;26.90;41.77
15604;BME280;7902;49.042;9.092;2023-06-19T02:00:59;98662.75;;;26.79;42.35
15604;BME280;7902;49.042;9.092;2023-06-19T02:03:25;98647.97;;;26.88;42.34
15604;BME280;7902;49.042;9.092;2023-06-19T02:05:51;98643.09;;;26.79;42.66
15604;BME280;7902;49.042;9.092;2023-06-19T02:08:17;98652.56;;;26.88;42.59
15604;BME280;7902;49.042;9.092;2023-06-19T02:10:43;98648.25;;;26.80;42.99
15604;BME280;7902;49.042;9.092;2023-06-19T02:13:09;98647.06;;;26.94;42.52
15604;BME280;7902;49.042;9.092;2023-06-19T02:15:35;98650.19;;;27.10;42.06
15604;BME280;7902;49.042;9.092;2023-06-19T02:18:02;98645.69;;;27.03;42.39
15604;BME280;7902;49.042;9.092;2023-06-19T02:20:28;98644.78;;;27.10;42.58
15604;BME280;7902;49.042;9.092;2023-06-19T02:22:54;98643.00;;;27.03;42.45
15604;BME280;7902;49.042;9.092;2023-06-19T02:25:20;98641.13;;;27.04;42.47
15604;BME280;7902;49.042;9.092;2023-06-19T02:27:46;98633.69;;;26.88;42.96
15604;BME280;7902;49.042;9.092;2023-06-19T02:30:12;98633.84;;;26.93;43.01
15604;BME280;7902;49.042;9.092;2023-06-19T02:32:38;98632.53;;;26.95;42.84
15604;BME280;7902;49.042;9.092;2023-06-19T02:35:09;98622.59;;;26.96;43.50
15604;BME280;7902;49.042;9.092;2023-06-19T02:37:35;98630.06;;;27.12;42.65
15604;BME280;7902;49.042;9.092;2023-06-19T02:40:04;98630.69;;;27.26;42.74
15604;BME280;7902;49.042;9.092;2023-06-19T02:42:30;98632.09;;;27.28;42.20
15604;BME280;7902;49.042;9.092;2023-06-19T02:44:56;98638.91;;;27.31;42.82
15604;BME280;7902;49.042;9.092;2023-06-19T02:47:32;98649.09;;;27.29;42.98
15604;BME280;7902;49.042;9.092;2023-06-19T02:49:58;98647.72;;;27.38;43.24
15604;BME280;7902;49.042;9.092;2023-06-19T02:52:24;98641.00;;;27.40;44.29
15604;BME280;7902;49.042;9.092;2023-06-19T02:54:51;98654.13;;;27.37;44.27
15604;BME280;7902;49.042;9.092;2023-06-19T02:57:16;98671.00;;;27.32;44.66
15604;BME280;7902;49.042;9.092;2023-06-19T02:59:42;98664.44;;;27.28;44.28
15604;BME280;7902;49.042;9.092;2023-06-19T03:02:08;98677.06;;;27.16;45.33
15604;BME280;7902;49.042;9.092;2023-06-19T03:04:34;98679.59;;;27.11;45.34
15604;BME280;7902;49.042;9.092;2023-06-19T03:07:00;98694.13;;;27.10;45.11
15604;BME280;7902;49.042;9.092;2023-06-19T03:09:28;98685.28;;;27.21;44.64
15604;BME280;7902;49.042;9.092;2023-06-19T03:11:54;98684.53;;;27.14;45.57
15604;BME280;7902;49.042;9.092;2023-06-19T03:14:20;98696.34;;;27.13;45.32
15604;BME280;7902;49.042;9.092;2023-06-19T03:16:46;98695.34;;;26.96;46.20
15604;BME280;7902;49.042;9.092;2023-06-19T03:19:12;98708.50;;;26.86;46.64
15604;BME280;7902;49.042;9.092;2023-06-19T03:21:38;98711.50;;;26.96;45.82
15604;BME280;7902;49.042;9.092;2023-06-19T03:24:04;98711.34;;;26.91;46.75
15604;BME280;7902;49.042;9.092;2023-06-19T03:26:30;98712.56;;;26.95;46.52
15604;BME280;7902;49.042;9.092;2023-06-19T03:28:56;98719.88;;;27.06;46.38
15604;BME280;7902;49.042;9.092;2023-06-19T03:31:22;98727.16;;;26.87;47.58
15604;BME280;7902;49.042;9.092;2023-06-19T03:33:48;98735.81;;;26.89;47.56
15604;BME280;7902;49.042;9.092;2023-06-19T03:36:14;98731.50;;;26.88;47.17
15604;BME280;7902;49.042;9.092;2023-06-19T03:38:40;98736.78;;;26.77;48.23
15604;BME280;7902;49.042;9.092;2023-06-19T03:41:06;98739.38;;;26.65;48.09
15604;BME280;7902;49.042;9.092;2023-06-19T03:43:32;98737.69;;;26.89;46.51
15604;BME280;7902;49.042;9.092;2023-06-19T03:45:58;98735.25;;;26.87;46.57
15604;BME280;7902;49.042;9.092;2023-06-19T03:48:24;98741.66;;;26.86;46.52
15604;BME280;7902;49.042;9.092;2023-06-19T03:50:50;98743.34;;;26.81;46.77
15604;BME280;7902;49.042;9.092;2023-06-19T03:53:16;98747.09;;;26.80;46.60
15604;BME280;7902;49.042;9.092;2023-06-19T03:55:42;98738.06;;;26.74;46.56
15604;BME280;7902;49.042;9.092;2023-06-19T03:58:09;98751.22;;;26.64;47.06
15604;BME280;7902;49.042;9.092;2023-06-19T04:00:35;98744.47;;;26.73;46.74
15604;BME280;7902;49.042;9.092;2023-06-19T04:03:01;98745.69;;;26.77;46.46
15604;BME280;7902;49.042;9.092;2023-06-19T04:05:27;98743.03;;;26.71;46.58
15604;BME280;7902;49.042;9.092;2023-06-19T04:07:53;98752.19;;;26.70;46.90
15604;BME280;7902;49.042;9.092;2023-06-19T04:10:19;98755.16;;;26.61;47.27
15604;BME280;7902;49.042;9.092;2023-06-19T04:12:45;98760.53;;;26.61;47.07
15604;BME280;7902;49.042;9.092;2023-06-19T04:15:11;98764.06;;;26.62;47.12
15604;BME280;7902;49.042;9.092;2023-06-19T04:17:37;98773.41;;;26.59;47.14
15604;BME280;7902;49.042;9.092;2023-06-19T04:20:04;98768.78;;;26.67;46.95
15604;BME280;7902;49.042;9.092;2023-06-19T04:22:40;98758.63;;;26.69;46.91
15604;BME280;7902;49.042;9.092;2023-06-19T04:25:09;98771.09;;;26.63;46.96
15604;BME280;7902;49.042;9.092;2023-06-19T04:27:39;98775.00;;;26.67;46.73
15604;BME280;7902;49.042;9.092;2023-06-19T04:30:05;98769.59;;;26.67;46.48
15604;BME280;7902;49.042;9.092;2023-06-19T04:32:33;98775.59;;;26.69;46.76
15604;BME280;7902;49.042;9.092;2023-06-19T04:35:00;98779.72;;;26.72;46.58
15604;BME280;7902;49.042;9.092;2023-06-19T04:37:26;98774.94;;;26.74;46.80
15604;BME280;7902;49.042;9.092;2023-06-19T04:39:52;98772.50;;;26.65;47.45
15604;BME280;7902;49.042;9.092;2023-06-19T04:42:18;98778.34;;;26.62;47.09
15604;BME280;7902;49.042;9.092;2023-06-19T04:44:46;98784.34;;;26.64;46.64
15604;BME280;7902;49.042;9.092;2023-06-19T04:47:12;98788.66;;;26.65;46.35
15604;BME280;7902;49.042;9.092;2023-06-19T04:49:38;98789.13;;;26.62;46.72
15604;BME280;7902;49.042;9.092;2023-06-19T04:52:04;98791.63;;;26.64;46.11
15604;BME280;7902;49.042;9.092;2023-06-19T04:54:30;98787.63;;;26.67;46.17
15604;BME280;7902;49.042;9.092;2023-06-19T04:56:58;98794.06;;;26.65;46.40
15604;BME280;7902;49.042;9.092;2023-06-19T04:59:24;98803.13;;;26.71;45.61
15604;BME280;7902;49.042;9.092;2023-06-19T05:01:50;98793.56;;;26.75;45.26
15604;BME280;7902;49.042;9.092;2023-06-19T05:04:23;98804.50;;;26.80;45.06
15604;BME280;7902;49.042;9.092;2023-06-19T05:06:49;98805.97;;;26.76;45.20
15604;BME280;7902;49.042;9.092;2023-06-19T05:09:15;98811.31;;;26.83;45.77
15604;BME280;7902;49.042;9.092;2023-06-19T05:11:41;98818.63;;;26.76;45.73
15604;BME280;7902;49.042;9.092;2023-06-19T05:14:07;98818.91;;;26.68;46.23
15604;BME280;7902;49.042;9.092;2023-06-19T05:16:33;98812.03;;;26.72;46.87
15604;BME280;7902;49.042;9.092;2023-06-19T05:18:59;98814.00;;;26.83;45.89
15604;BME280;7902;49.042;9.092;2023-06-19T05:21:26;98822.88;;;26.90;45.69
15604;BME280;7902;49.042;9.092;2023-06-19T05:23:52;98826.19;;;26.92;45.91
15604;BME280;7902;49.042;9.092;2023-06-19T05:26:19;98836.22;;;27.03;46.14
15604;BME280;7902;49.042;9.092;2023-06-19T05:28:47;98836.88;;;26.98;46.98
15604;BME280;7902;49.042;9.092;2023-06-19T05:31:13;98831.94;;;26.95;46.45
15604;BME280;7902;49.042;9.092;2023-06-19T05:33:40;98836.81;;;27.05;46.29
15604;BME280;7902;49.042;9.092;2023-06-19T05:36:06;98826.81;;;27.12;46.27
15604;BME280;7902;49.042;9.092;2023-06-19T05:38:32;98831.44;;;27.05;46.53
15604;BME280;7902;49.042;9.092;2023-06-19T05:40:58;98829.63;;;27.17;45.35
15604;BME280;7902;49.042;9.092;2023-06-19T05:43:24;98827.84;;;27.11;45.74
15604;BME280;7902;49.042;9.092;2023-06-19T05:45:50;98820.66;;;27.05;46.22
15604;BME280;7902;49.042;9.092;2023-06-19T05:48:16;98826.81;;;27.12;45.69
15604;BME280;7902;49.042;9.092;2023-06-19T05:50:42;98820.97;;;27.15;45.45
15604;BME280;7902;49.042;9.092;2023-06-19T05:53:08;98829.19;;;27.20;45.86
15604;BME280;7902;49.042;9.092;2023-06-19T05:55:34;98819.59;;;27.24;45.20
15604;BME280;7902;49.042;9.092;2023-06-19T05:58:00;98822.16;;;27.19;46.19
15604;BME280;7902;49.042;9.092;2023-06-19T06:00:26;98826.34;;;27.15;46.76
15604;BME280;7902;49.042;9.092;2023-06-19T06:02:53;98833.81;;;27.13;46.47
15604;BME280;7902;49.042;9.092;2023-06-19T06:05:19;98831.28;;;27.18;45.92
15604;BME280;7902;49.042;9.092;2023-06-19T06:07:46;98829.03;;;27.15;46.25
15604;BME280;7902;49.042;9.092;2023-06-19T06:10:12;98833.66;;;27.08;46.88
15604;BME280;7902;49.042;9.092;2023-06-19T06:12:39;98835.63;;;27.01;46.90
15604;BME280;7902;49.042;9.092;2023-06-19T06:15:05;98837.50;;;27.19;45.95
15604;BME280;7902;49.042;9.092;2023-06-19T06:17:31;98843.72;;;27.19;46.15
15604;BME280;7902;49.042;9.092;2023-06-19T06:19:57;98835.84;;;27.18;46.85
15604;BME280;7902;49.042;9.092;2023-06-19T06:22:23;98841.47;;;27.16;46.57
15604;BME280;7902;49.042;9.092;2023-06-19T06:24:49;98839.88;;;27.08;46.87
15604;BME280;7902;49.042;9.092;2023-06-19T06:27:15;98841.84;;;27.20;46.09
15604;BME280;7902;49.042;9.092;2023-06-19T06:29:42;98846.88;;;27.16;46.10
15604;BME280;7902;49.042;9.092;2023-06-19T06:32:09;98858.41;;;27.23;46.48
15604;BME280;7902;49.042;9.092;2023-06-19T06:34:35;98850.66;;;27.27;46.02
15604;BME280;7902;49.042;9.092;2023-06-19T06:37:02;98852.94;;;27.30;46.07
15604;BME280;7902;49.042;9.092;2023-06-19T06:39:28;98853.00;;;27.23;46.44
15604;BME280;7902;49.042;9.092;2023-06-19T06:41:54;98860.72;;;27.20;46.50
15604;BME280;7902;49.042;9.092;2023-06-19T06:44:20;98854.66;;;27.24;46.98
15604;BME280;7902;49.042;9.092;2023-06-19T06:46:46;98863.78;;;27.23;46.52
15604;BME280;7902;49.042;9.092;2023-06-19T06:49:12;98863.31;;;27.26;46.12
15604;BME280;7902;49.042;9.092;2023-06-19T06:51:38;98868.44;;;27.34;46.65
15604;BME280;7902;49.042;9.092;2023-06-19T06:54:04;98868.66;;;27.33;47.54
15604;BME280;7902;49.042;9.092;2023-06-19T06:56:30;98876.53;;;27.34;47.43
15604;BME280;7902;49.042;9.092;2023-06-19T06:58:55;98880.06;;;27.35;47.09
15604;BME280;7902;49.042;9.092;2023-06-19T07:01:21;98884.63;;;27.34;47.36
15604;BME280;7902;49.042;9.092;2023-06-19T07:03:47;98886.72;;;27.32;47.52
15604;BME280;7902;49.042;9.092;2023-06-19T07:06:13;98889.25;;;27.45;46.78
15604;BME280;7902;49.042;9.092;2023-06-19T07:08:39;98886.56;;;27.45;46.58
15604;BME280;7902;49.042;9.092;2023-06-19T07:11:09;98889.19;;;27.34;46.75
15604;BME280;7902;49.042;9.092;2023-06-19T07:13:35;98896.41;;;27.40;46.70
15604;BME280;7902;49.042;9.092;2023-06-19T07:16:01;98889.03;;;27.47;45.64
15604;BME280;7902;49.042;9.092;2023-06-19T07:18:27;98899.19;;;27.52;46.00
15604;BME280;7902;49.042;9.092;2023-06-19T07:20:53;98898.97;;;27.53;45.94
15604;BME280;7902;49.042;9.092;2023-06-19T07:23:19;98888.75;;;27.55;45.92
15604;BME280;7902;49.042;9.092;2023-06-19T07:25:46;98901.81;;;27.58;46.17
15604;BME280;7902;49.042;9.092;2023-06-19T07:28:13;98893.03;;;27.44;46.65
15604;BME280;7902;49.042;9.092;2023-06-19T07:30:39;98897.00;;;27.60;45.81
15604;BME280;7902;49.042;9.092;2023-06-19T07:33:05;98904.50;;;27.58;46.06
15604;BME280;7902;49.042;9.092;2023-06-19T07:35:31;98899.34;;;27.57;45.88
15604;BME280;7902;49.042;9.092;2023-06-19T07:37:57;98905.34;;;27.59;45.64
15604;BME280;7902;49.042;9.092;2023-06-19T07:40:23;98903.22;;;27.61;46.94
15604;BME280;7902;49.042;9.092;2023-06-19T07:42:48;98902.66;;;27.59;46.59
15604;BME280;7902;49.042;9.092;2023-06-19T07:45:14;98902.91;;;27.69;46.44
15604;BME280;7902;49.042;9.092;2023-06-19T07:47:40;98904.34;;;27.71;45.71
15604;BME280;7902;49.042;9.092;2023-06-19T07:50:06;98909.78;;;27.83;44.98
15604;BME280;7902;49.042;9.092;2023-06-19T07:52:32;98905.22;;;27.83;45.59
15604;BME280;7902;49.042;9.092;2023-06-19T07:54:59;98904.88;;;27.80;44.95
15604;BME280;7902;49.042;9.092;2023-06-19T07:57:26;98900.28;;;27.80;44.92
15604;BME280;7902;49.042;9.092;2023-06-19T07:59:53;98899.84;;;27.83;45.10
15604;BME280;7902;49.042;9.092;2023-06-19T08:02:20;98916.56;;;27.92;45.20
15604;BME280;7902;49.042;9.092;2023-06-19T08:04:46;98913.31;;;27.83;44.91
15604;BME280;7902;49.042;9.092;2023-06-19T08:07:12;98912.63;;;27.88;45.05
15604;BME280;7902;49.042;9.092;2023-06-19T08:09:38;98908.47;;;27.92;44.68
15604;BME280;7902;49.042;9.092;2023-06-19T08:12:05;98906.34;;;27.94;45.11
15604;BME280;7902;49.042;9.092;2023-06-19T08:14:31;98910.84;;;28.00;44.49
15604;BME280;7902;49.042;9.092;2023-06-19T08:16:57;98912.84;;;28.05;44.33
15604;BME280;7902;49.042;9.092;2023-06-19T08:19:23;98914.94;;;28.03;44.50
15604;BME280;7902;49.042;9.092;2023-06-19T08:21:49;98921.81;;;27.87;44.39
15604;BME280;7902;49.042;9.092;2023-06-19T08:24:15;98917.00;;;27.89;44.31
15604;BME280;7902;49.042;9.092;2023-06-19T08:26:40;98911.81;;;27.87;44.20
15604;BME280;7902;49.042;9.092;2023-06-19T08:29:06;98904.31;;;27.89;43.86
15604;BME280;7902;49.042;9.092;2023-06-19T08:31:32;98917.28;;;27.99;44.01
15604;BME280;7902;49.042;9.092;2023-06-19T08:33:59;98912.03;;;28.04;43.76
15604;BME280;7902;49.042;9.092;2023-06-19T08:36:26;98912.94;;;27.98;44.21
15604;BME280;7902;49.042;9.092;2023-06-19T08:38:52;98915.69;;;28.10;43.70
15604;BME280;7902;49.042;9.092;2023-06-19T08:41:19;98906.59;;;28.11;44.46
15604;BME280;7902;49.042;9.092;2023-06-19T08:43:45;98907.81;;;28.08;43.46
15604;BME280;7902;49.042;9.092;2023-06-19T08:46:15;98909.78;;;28.01;43.73
15604;BME280;7902;49.042;9.092;2023-06-19T08:48:41;98909.47;;;28.09;43.36
15604;BME280;7902;49.042;9.092;2023-06-19T08:51:09;98911.66;;;28.19;43.49
15604;BME280;7902;49.042;9.092;2023-06-19T08:53:43;98906.03;;;28.20;43.49
15604;BME280;7902;49.042;9.092;2023-06-19T08:56:09;98905.09;;;28.26;43.37
15604;BME280;7902;49.042;9.092;2023-06-19T08:58:35;98898.28;;;28.24;44.27
15604;BME280;7902;49.042;9.092;2023-06-19T09:01:01;98898.88;;;28.26;44.02
15604;BME280;7902;49.042;9.092;2023-06-19T09:03:27;98902.41;;;28.26;43.76
15604;BME280;7902;49.042;9.092;2023-06-19T09:05:53;98900.63;;;28.20;44.43
15604;BME280;7902;49.042;9.092;2023-06-19T09:08:20;98902.72;;;28.48;43.47
15604;BME280;7902;49.042;9.092;2023-06-19T09:11:02;98900.19;;;28.35;44.13
15604;BME280;7902;49.042;9.092;2023-06-19T09:13:29;98903.69;;;28.24;44.49
15604;BME280;7902;49.042;9.092;2023-06-19T09:15:59;98902.31;;;28.33;44.35
15604;BME280;7902;49.042;9.092;2023-06-19T09:18:26;98898.94;;;28.49;43.26
15604;BME280;7902;49.042;9.092;2023-06-19T09:20:53;98906.41;;;28.35;44.11
15604;BME280;7902;49.042;9.092;2023-06-19T09:23:20;98900.25;;;28.47;43.95
15604;BME280;7902;49.042;9.092;2023-06-19T09:25:46;98903.78;;;28.47;43.04
15604;BME280;7902;49.042;9.092;2023-06-19T09:28:17;98911.38;;;28.39;43.80
15604;BME280;7902;49.042;9.092;2023-06-19T09:31:00;98905.38;;;28.36;43.50
15604;BME280;7902;49.042;9.092;2023-06-19T09:33:28;98902.72;;;28.60;43.11
15604;BME280;7902;49.042;9.092;2023-06-19T09:35:56;98910.09;;;28.71;43.22
15604;BME280;7902;49.042;9.092;2023-06-19T09:38:27;98905.34;;;28.66;43.08
15604;BME280;7902;49.042;9.092;2023-06-19T09:40:56;98894.97;;;28.63;43.04
15604;BME280;7902;49.042;9.092;2023-06-19T09:43:26;98902.63;;;28.66;43.05
15604;BME280;7902;49.042;9.092;2023-06-19T09:45:56;98894.06;;;28.58;43.97
15604;BME280;7902;49.042;9.092;2023-06-19T09:48:27;98899.09;;;28.66;43.67
15604;BME280;7902;49.042;9.092;2023-06-19T09:51:00;98895.25;;;28.73;43.51
15604;BME280;7902;49.042;9.092;2023-06-19T09:53:26;98905.25;;;28.73;44.09
15604;BME280;7902;49.042;9.092;2023-06-19T09:55:52;98900.38;;;28.63;44.73
15604;BME280;7902;49.042;9.092;2023-06-19T09:58:21;98898.63;;;28.69;44.21
15604;BME280;7902;49.042;9.092;2023-06-19T10:00:48;98896.56;;;28.71;44.34
15604;BME280;7902;49.042;9.092;2023-06-19T10:03:16;98899.41;;;28.76;44.15
15604;BME280;7902;49.042;9.092;2023-06-19T10:05:42;98903.06;;;28.82;45.04
15604;BME280;7902;49.042;9.092;2023-06-19T10:08:09;98903.41;;;28.85;44.64
15604;BME280;7902;49.042;9.092;2023-06-19T10:10:46;98904.56;;;28.89;44.90
15604;BME280;7902;49.042;9.092;2023-06-19T10:13:16;98905.41;;;28.90;44.98
15604;BME280;7902;49.042;9.092;2023-06-19T10:15:43;98901.88;;;29.01;45.18
15604;BME280;7902;49.042;9.092;2023-06-19T10:18:17;98891.53;;;28.98;44.86
15604;BME280;7902;49.042;9.092;2023-06-19T10:20:44;98890.94;;;28.84;44.70
15604;BME280;7902;49.042;9.092;2023-06-19T10:23:18;98886.59;;;28.95;44.85
15604;BME280;7902;49.042;9.092;2023-06-19T10:25:47;98890.72;;;28.97;44.61
15604;BME280;7902;49.042;9.092;2023-06-19T10:30:53;98888.34;;;28.89;44.52
15604;BME280;7902;49.042;9.092;2023-06-19T10:33:27;98889.66;;;28.98;45.00
15604;BME280;7902;49.042;9.092;2023-06-19T10:35:54;98893.31;;;29.04;44.81
15604;BME280;7902;49.042;9.092;2023-06-19T10:38:20;98887.78;;;28.99;44.57
15604;BME280;7902;49.042;9.092;2023-06-19T10:40:47;98890.72;;;29.09;44.26
15604;BME280;7902;49.042;9.092;2023-06-19T10:43:20;98886.03;;;29.04;44.73
15604;BME280;7902;49.042;9.092;2023-06-19T10:45:47;98875.78;;;28.95;45.09
15604;BME280;7902;49.042;9.092;2023-06-19T10:48:18;98881.78;;;29.08;44.24
15604;BME280;7902;49.042;9.092;2023-06-19T10:50:45;98867.09;;;29.04;44.15
15604;BME280;7902;49.042;9.092;2023-06-19T10:53:11;98868.38;;;29.13;44.31
15604;BME280;7902;49.042;9.092;2023-06-19T10:55:37;98865.91;;;29.23;44.26
15604;BME280;7902;49.042;9.092;2023-06-19T10:58:03;98856.84;;;29.18;44.35
15604;BME280;7902;49.042;9.092;2023-06-19T11:00:32;98856.63;;;29.31;43.80
15604;BME280;7902;49.042;9.092;2023-06-19T11:02:59;98852.84;;;29.20;43.67
15604;BME280;7902;49.042;9.092;2023-06-19T11:05:26;98857.22;;;29.33;43.63
15604;BME280;7902;49.042;9.092;2023-06-19T11:07:58;98855.31;;;29.22;43.65
15604;BME280;7902;49.042;9.092;2023-06-19T11:10:26;98846.75;;;29.37;42.67
15604;BME280;7902;49.042;9.092;2023-06-19T11:12:54;98846.88;;;29.30;43.42
15604;BME280;7902;49.042;9.092;2023-06-19T11:15:31;98849.28;;;29.55;43.12
15604;BME280;7902;49.042;9.092;2023-06-19T11:17:59;98850.72;;;29.46;43.15
15604;BME280;7902;49.042;9.092;2023-06-19T11:20:25;98847.63;;;29.54;43.61
15604;BME280;7902;49.042;9.092;2023-06-19T11:22:58;98839.13;;;29.62;42.87
15604;BME280;7902;49.042;9.092;2023-06-19T11:25:35;98844.41;;;29.69;42.99
15604;BME280;7902;49.042;9.092;2023-06-19T11:28:01;98844.31;;;29.63;42.72
15604;BME280;7902;49.042;9.092;2023-06-19T11:30:32;98847.34;;;29.67;42.97
15604;BME280;7902;49.042;9.092;2023-06-19T11:32:59;98849.16;;;29.61;42.76
15604;BME280;7902;49.042;9.092;2023-06-19T11:35:32;98847.19;;;29.57;42.92
15604;BME280;7902;49.042;9.092;2023-06-19T11:37:59;98838.69;;;29.65;43.16
15604;BME280;7902;49.042;9.092;2023-06-19T11:40:25;98844.53;;;29.74;42.91
15604;BME280;7902;49.042;9.092;2023-06-19T11:42:52;98836.94;;;29.87;42.66
15604;BME280;7902;49.042;9.092;2023-06-19T11:45:19;98848.16;;;29.79;42.75
15604;BME280;7902;49.042;9.092;2023-06-19T11:47:45;98843.31;;;29.93;42.38
15604;BME280;7902;49.042;9.092;2023-06-19T11:50:13;98840.28;;;29.89;41.80
15604;BME280;7902;49.042;9.092;2023-06-19T11:52:42;98837.66;;;29.94;42.53
15604;BME280;7902;49.042;9.092;2023-06-19T11:55:08;98834.34;;;29.92;41.95
15604;BME280;7902;49.042;9.092;2023-06-19T11:57:34;98837.44;;;29.84;41.95
15604;BME280;7902;49.042;9.092;2023-06-19T12:00:01;98836.84;;;29.82;42.51
15604;BME280;7902;49.042;9.092;2023-06-19T12:02:26;98840.78;;;30.03;42.12
15604;BME280;7902;49.042;9.092;2023-06-19T12:04:52;98835.38;;;30.03;41.58
15604;BME280;7902;49.042;9.092;2023-06-19T12:07:19;98836.66;;;30.00;42.15
15604;BME280;7902;49.042;9.092;2023-06-19T12:09:48;98845.06;;;30.16;41.80
15604;BME280;7902;49.042;9.092;2023-06-19T12:12:14;98832.91;;;30.01;41.48
15604;BME280;7902;49.042;9.092;2023-06-19T12:14:40;98830.19;;;30.01;41.78
15604;BME280;7902;49.042;9.092;2023-06-19T12:17:06;98832.25;;;30.11;41.70
15604;BME280;7902;49.042;9.092;2023-06-19T12:19:31;98837.69;;;30.11;41.59
15604;BME280;7902;49.042;9.092;2023-06-19T12:21:57;98830.16;;;30.13;41.98
15604;BME280;7902;49.042;9.092;2023-06-19T12:24:24;98823.56;;;30.09;41.60
15604;BME280;7902;49.042;9.092;2023-06-19T12:26:50;98818.19;;;30.26;41.55
15604;BME280;7902;49.042;9.092;2023-06-19T12:29:16;98814.59;;;30.37;41.04
15604;BME280;7902;49.042;9.092;2023-06-19T12:31:43;98816.69;;;30.35;40.94
15604;BME280;7902;49.042;9.092;2023-06-19T12:34:09;98816.38;;;30.31;40.80
15604;BME280;7902;49.042;9.092;2023-06-19T12:36:36;98814.88;;;30.24;41.00
15604;BME280;7902;49.042;9.092;2023-06-19T12:39:02;98816.03;;;30.28;41.08
15604;BME280;7902;49.042;9.092;2023-06-19T12:41:31;98808.63;;;30.23;41.19
15604;BME280;7902;49.042;9.092;2023-06-19T12:43:57;98813.16;;;30.18;41.20
15604;BME280;7902;49.042;9.092;2023-06-19T12:46:23;98812.16;;;30.24;41.28
15604;BME280;7902;49.042;9.092;2023-06-19T12:48:49;98812.44;;;30.39;40.61
15604;BME280;7902;49.042;9.092;2023-06-19T12:51:17;98812.44;;;30.22;41.01
15604;BME280;7902;49.042;9.092;2023-06-19T12:53:44;98799.31;;;30.31;40.87
15604;BME280;7902;49.042;9.092;2023-06-19T12:56:09;98800.59;;;30.28;40.93
15604;BME280;7902;49.042;9.092;2023-06-19T12:58:35;98803.25;;;30.40;41.63
15604;BME280;7902;49.042;9.092;2023-06-19T13:01:01;98799.59;;;30.84;40.62
15604;BME280;7902;49.042;9.092;2023-06-19T13:03:27;98801.34;;;30.90;40.82
15604;BME280;7902;49.042;9.092;2023-06-19T13:05:53;98807.34;;;30.92;40.15
15604;BME280;7902;49.042;9.092;2023-06-19T13:08:19;98795.53;;;30.82;39.92
15604;BME280;7902;49.042;9.092;2023-06-19T13:10:45;98790.56;;;30.95;39.91